createdAt,value
2019-03-08T00:00:24.880Z,4.73
2019-03-08T00:03:28.773Z,5.20
2019-03-08T00:06:32.577Z,5.17
2019-03-08T00:09:36.460Z,6.03
2019-03-08T00:12:40.313Z,6.20
2019-03-08T00:15:44.158Z,6.50
2019-03-08T00:18:48.034Z,5.90
2019-03-08T00:21:52.178Z,5.57
2019-03-08T00:24:56.022Z,5.67
2019-03-08T00:27:59.857Z,5.13
2019-03-08T00:31:03.901Z,5.27
2019-03-08T00:34:07.736Z,5.43
2019-03-08T00:37:11.614Z,5.70
2019-03-08T00:40:15.715Z,5.47
2019-03-08T00:43:19.595Z,6.60
2019-03-08T00:46:23.437Z,5.87
2019-03-08T00:49:27.258Z,5.83
2019-03-08T00:52:32.967Z,5.73
2019-03-08T00:55:37.193Z,5.47
2019-03-08T00:58:41.042Z,5.27
2019-03-08T01:01:44.906Z,5.40
2019-03-08T01:04:48.741Z,5.17
2019-03-08T01:07:52.573Z,4.63
2019-03-08T01:10:56.423Z,4.83
2019-03-08T01:14:00.255Z,4.60
2019-03-08T01:17:04.096Z,4.37
2019-03-08T01:20:10.129Z,4.37
2019-03-08T01:23:13.993Z,4.63
2019-03-08T01:26:17.813Z,4.57
2019-03-08T01:29:21.977Z,4.47
2019-03-08T01:32:25.816Z,4.50
2019-03-08T01:35:29.650Z,4.33
2019-03-08T01:38:33.518Z,4.40
2019-03-08T01:41:37.343Z,4.30
2019-03-08T01:44:41.197Z,4.10
2019-03-08T01:47:45.016Z,4.17
2019-03-08T01:50:48.845Z,4.23
2019-03-08T01:53:52.732Z,4.20
2019-03-08T01:56:56.535Z,3.97
2019-03-08T02:00:00.394Z,3.80
2019-03-08T02:03:04.695Z,3.53
2019-03-08T02:06:08.551Z,3.50
2019-03-08T02:09:12.435Z,3.40
2019-03-08T02:12:16.254Z,3.10
2019-03-08T02:15:20.093Z,2.93
2019-03-08T02:18:24.190Z,2.90
2019-03-08T02:21:28.054Z,2.80
2019-03-08T02:24:31.860Z,2.90
2019-03-08T02:27:35.903Z,2.90
2019-03-08T02:30:39.748Z,3.13
2019-03-08T02:33:43.604Z,2.80
2019-03-08T02:36:47.527Z,2.90
2019-03-08T02:39:51.363Z,2.80
2019-03-08T02:42:55.195Z,2.60
2019-03-08T02:45:59.023Z,2.90
2019-03-08T02:49:02.864Z,2.60
2019-03-08T02:52:06.690Z,2.70
2019-03-08T02:55:10.538Z,2.50
2019-03-08T02:58:14.375Z,2.70
2019-03-08T03:01:18.206Z,2.50
2019-03-08T03:04:22.054Z,2.60
2019-03-08T03:07:25.907Z,2.37
2019-03-08T03:10:29.737Z,2.33
2019-03-08T03:13:33.587Z,2.63
2019-03-08T03:16:37.634Z,2.70
2019-03-08T03:19:41.460Z,2.70
2019-03-08T03:22:45.323Z,2.53
2019-03-08T03:25:49.576Z,2.53
2019-03-08T03:28:53.442Z,2.87
2019-03-08T03:31:57.275Z,2.23
2019-03-08T03:35:01.113Z,2.83
2019-03-08T03:38:04.935Z,2.73
2019-03-08T03:41:08.807Z,2.73
2019-03-08T03:44:12.624Z,2.87
2019-03-08T03:47:16.474Z,2.53
2019-03-08T03:50:20.305Z,2.53
2019-03-08T03:53:24.146Z,2.57
2019-03-08T03:56:28.112Z,2.53
2019-03-08T03:59:31.912Z,2.40
2019-03-08T04:02:35.790Z,2.27
2019-03-08T04:05:39.619Z,2.33
2019-03-08T04:08:43.489Z,2.00
2019-03-08T04:11:47.284Z,2.17
2019-03-08T04:14:51.147Z,2.40
2019-03-08T04:17:54.972Z,2.50
2019-03-08T04:20:58.815Z,2.37
2019-03-08T04:24:02.933Z,2.17
2019-03-08T04:27:06.793Z,2.47
2019-03-08T04:30:18.621Z,2.40
2019-03-08T04:33:22.473Z,2.00
2019-03-08T04:36:26.320Z,2.57
2019-03-08T04:39:30.135Z,2.30
2019-03-08T04:42:33.997Z,2.50
2019-03-08T04:45:37.833Z,2.27
2019-03-08T04:48:41.697Z,2.40
2019-03-08T04:51:45.575Z,2.70
2019-03-08T04:54:49.419Z,2.60
2019-03-08T04:57:53.282Z,2.70
2019-03-08T05:00:57.124Z,2.70
2019-03-08T05:04:00.979Z,2.63
2019-03-08T05:07:04.795Z,2.40
2019-03-08T05:10:11.513Z,2.70
2019-03-08T05:13:15.633Z,2.70
2019-03-08T05:16:19.475Z,2.43
2019-03-08T05:19:23.296Z,2.27
2019-03-08T05:22:27.353Z,2.30
2019-03-08T05:25:31.176Z,2.60
2019-03-08T05:28:35.023Z,2.50
2019-03-08T05:31:38.935Z,2.87
2019-03-08T05:34:42.814Z,2.57
2019-03-08T05:37:47.055Z,2.70
2019-03-08T05:40:50.875Z,2.90
2019-03-08T05:43:54.780Z,2.90
2019-03-08T05:46:58.694Z,2.73
2019-03-08T05:50:02.524Z,2.83
2019-03-08T05:53:06.394Z,2.70
2019-03-08T05:56:10.234Z,2.83
2019-03-08T05:59:14.129Z,2.60
2019-03-08T06:02:18.051Z,2.73
2019-03-08T06:05:21.913Z,2.70
2019-03-08T06:08:25.761Z,2.83
2019-03-08T06:11:29.637Z,2.87
2019-03-08T06:14:33.443Z,2.87
2019-03-08T06:17:37.289Z,2.60
2019-03-08T06:20:41.115Z,2.50
2019-03-08T06:23:45.007Z,2.60
2019-03-08T06:26:48.835Z,2.90
2019-03-08T06:29:52.707Z,2.90
2019-03-08T06:32:56.553Z,2.80
2019-03-08T06:36:00.418Z,2.67
2019-03-08T06:39:06.097Z,3.30
2019-03-08T06:42:09.899Z,3.47
2019-03-08T06:45:16.795Z,2.90
2019-03-08T06:48:21.044Z,3.00
2019-03-08T06:51:25.833Z,3.00
2019-03-08T06:54:29.663Z,3.07
2019-03-08T06:57:33.718Z,2.97
2019-03-08T07:00:48.202Z,2.70
2019-03-08T07:03:52.037Z,2.83
2019-03-08T07:06:55.897Z,2.67
2019-03-08T07:09:59.754Z,2.90
2019-03-08T07:13:03.992Z,2.87
2019-03-08T07:16:13.056Z,3.03
2019-03-08T07:19:13.595Z,2.87
2019-03-08T07:22:18.985Z,2.90
2019-03-08T07:25:24.418Z,2.63
2019-03-08T07:28:33.039Z,2.43
2019-03-08T07:31:38.543Z,2.60
2019-03-08T07:34:43.977Z,2.57
2019-03-08T07:37:52.096Z,2.90
2019-03-08T07:40:57.533Z,2.30
2019-03-08T07:44:20.712Z,2.53
2019-03-08T07:47:42.712Z,2.70
2019-03-08T07:51:00.043Z,2.70
2019-03-08T07:54:08.413Z,2.50
2019-03-08T07:57:22.579Z,2.90
2019-03-08T08:00:40.513Z,2.50
2019-03-08T08:03:45.940Z,2.70
2019-03-08T08:06:54.169Z,2.40
2019-03-08T08:10:15.718Z,2.60
2019-03-08T08:13:27.123Z,2.47
2019-03-08T08:16:44.660Z,2.30
2019-03-08T08:19:53.536Z,2.30
2019-03-08T08:23:10.884Z,1.83
2019-03-08T08:26:16.374Z,2.50
2019-03-08T08:29:34.673Z,2.40
2019-03-08T08:32:34.618Z,2.47
2019-03-08T08:35:46.213Z,2.60
2019-03-08T08:39:00.817Z,1.80
2019-03-08T08:42:09.004Z,2.50
2019-03-08T08:45:14.536Z,2.23
2019-03-08T08:48:25.673Z,2.30
2019-03-08T08:51:33.793Z,2.40
2019-03-08T08:54:39.214Z,2.27
2019-03-08T08:57:44.615Z,2.27
2019-03-08T09:00:56.053Z,2.10
2019-03-08T09:04:04.215Z,2.40
2019-03-08T09:07:15.823Z,2.00
2019-03-08T09:10:21.275Z,2.03
2019-03-08T09:13:35.780Z,1.93
2019-03-08T09:16:41.225Z,2.10
2019-03-08T09:20:02.618Z,2.20
2019-03-08T09:23:17.167Z,1.80
2019-03-08T09:26:25.333Z,1.63
2019-03-08T09:29:30.720Z,2.00
2019-03-08T09:32:36.147Z,2.20
2019-03-08T09:35:56.419Z,1.53
2019-03-08T09:39:19.574Z,2.23
2019-03-08T09:42:26.461Z,1.80
2019-03-08T09:45:34.906Z,2.10
2019-03-08T09:48:58.861Z,2.30
2019-03-08T09:52:04.403Z,2.20
2019-03-08T09:55:26.903Z,1.80
2019-03-08T09:58:41.229Z,1.80
2019-03-08T10:02:01.755Z,1.90
2019-03-08T10:05:24.108Z,2.10
2019-03-08T10:08:41.314Z,2.03
2019-03-08T10:11:46.703Z,2.10
2019-03-08T10:14:57.673Z,2.10
2019-03-08T10:18:21.440Z,1.87
2019-03-08T10:21:32.739Z,2.07
2019-03-08T10:24:40.872Z,2.17
2019-03-08T10:27:46.283Z,2.00
2019-03-08T10:30:51.683Z,2.30
2019-03-08T10:33:57.113Z,2.60
2019-03-08T10:37:08.763Z,2.37
2019-03-08T10:40:18.873Z,2.20
2019-03-08T10:43:24.308Z,2.30
2019-03-08T10:46:29.749Z,2.27
2019-03-08T10:49:55.066Z,2.30
2019-03-08T10:52:57.289Z,2.53
2019-03-08T10:56:11.935Z,2.83
2019-03-08T10:59:26.113Z,4.20
2019-03-08T11:02:34.245Z,4.13
2019-03-08T11:05:45.837Z,3.57
2019-03-08T11:08:57.468Z,2.83
2019-03-08T11:12:08.905Z,2.83
2019-03-08T11:15:24.168Z,2.50
2019-03-08T11:18:24.565Z,2.20
2019-03-08T11:21:32.682Z,2.70
2019-03-08T11:24:38.093Z,3.13
2019-03-08T11:27:43.490Z,2.30
2019-03-08T11:31:03.812Z,2.40
2019-03-08T11:34:12.519Z,2.80
2019-03-08T11:37:17.975Z,2.47
2019-03-08T11:40:35.193Z,2.33
2019-03-08T11:43:43.593Z,2.40
2019-03-08T11:46:49.059Z,2.70
2019-03-08T11:50:10.813Z,2.60
2019-03-08T11:53:25.164Z,2.63
2019-03-08T11:56:55.643Z,3.00
2019-03-08T11:59:57.256Z,2.60
2019-03-08T12:03:18.674Z,3.53
2019-03-08T12:06:26.974Z,2.67
2019-03-08T12:09:41.709Z,2.83
2019-03-08T12:12:56.080Z,2.80
2019-03-08T12:16:13.798Z,2.40
2019-03-08T12:19:35.163Z,2.90
2019-03-08T12:22:55.745Z,2.93
2019-03-08T12:26:17.119Z,2.97
2019-03-08T12:29:25.224Z,3.70
2019-03-08T12:32:33.414Z,3.37
2019-03-08T12:35:38.854Z,2.70
2019-03-08T12:38:50.065Z,2.10
2019-03-08T12:41:55.483Z,2.63
2019-03-08T12:45:17.148Z,2.10
2019-03-08T12:48:25.522Z,2.30
2019-03-08T12:51:47.096Z,2.40
2019-03-08T12:54:58.015Z,2.10
2019-03-08T12:58:19.848Z,2.40
2019-03-08T13:01:34.353Z,2.13
2019-03-08T13:04:39.734Z,2.40
2019-03-08T13:07:45.157Z,2.30
2019-03-08T13:10:48.995Z,2.57
2019-03-08T13:13:52.855Z,2.03
2019-03-08T13:16:56.733Z,2.37
2019-03-08T13:20:00.584Z,2.23
2019-03-08T13:23:04.478Z,2.00
2019-03-08T13:26:08.309Z,2.10
2019-03-08T13:29:12.213Z,2.10
2019-03-08T13:32:16.064Z,2.03
2019-03-08T13:35:19.897Z,2.43
2019-03-08T13:38:23.797Z,2.27
2019-03-08T13:41:27.649Z,2.17
2019-03-08T13:44:31.502Z,1.97
2019-03-08T13:47:35.370Z,1.90
2019-03-08T13:50:39.248Z,2.20
2019-03-08T13:53:43.053Z,2.30
2019-03-08T13:56:47.134Z,2.10
2019-03-08T13:59:51.008Z,2.87
2019-03-08T14:02:54.815Z,2.03
2019-03-08T14:05:58.764Z,2.27
2019-03-08T14:09:04.530Z,1.90
2019-03-08T14:12:08.433Z,1.90
2019-03-08T14:15:16.434Z,1.90
2019-03-08T14:18:20.271Z,2.10
2019-03-08T14:21:24.194Z,2.00
2019-03-08T14:24:27.999Z,1.97
2019-03-08T14:27:31.858Z,2.20
2019-03-08T14:30:40.350Z,2.40
2019-03-08T14:33:44.195Z,2.00
2019-03-08T14:36:48.126Z,2.03
2019-03-08T14:39:51.983Z,2.40
2019-03-08T14:43:16.971Z,2.57
2019-03-08T14:46:22.595Z,2.20
2019-03-08T14:49:26.443Z,2.07
2019-03-08T14:52:30.295Z,2.40
2019-03-08T14:55:34.153Z,2.00
2019-03-08T14:58:40.287Z,2.00
2019-03-08T15:01:43.488Z,2.23
2019-03-08T15:04:47.280Z,2.30
2019-03-08T15:07:51.167Z,2.17
2019-03-08T15:10:55.202Z,2.53
2019-03-08T15:13:59.109Z,2.90
2019-03-08T15:17:09.067Z,2.70
2019-03-08T15:20:15.023Z,2.90
2019-03-08T15:23:18.118Z,2.90
2019-03-08T15:26:22.132Z,3.17
2019-03-08T15:29:26.235Z,4.20
2019-03-08T15:32:30.284Z,4.60
2019-03-08T15:35:34.155Z,4.30
2019-03-08T15:38:38.035Z,3.03
2019-03-08T15:41:41.893Z,3.17
2019-03-08T15:44:45.715Z,3.47
2019-03-08T15:47:49.808Z,3.70
2019-03-08T15:50:53.656Z,4.70
2019-03-08T15:53:57.533Z,4.30
2019-03-08T15:57:01.453Z,5.03
2019-03-08T16:00:24.404Z,4.70
2019-03-08T16:03:30.196Z,6.37
2019-03-08T16:06:33.755Z,6.40
2019-03-08T16:09:37.713Z,3.80
2019-03-08T16:12:41.569Z,4.40
2019-03-08T16:15:45.413Z,4.70
2019-03-08T16:18:49.244Z,4.87
2019-03-08T16:21:53.123Z,4.90
2019-03-08T16:24:57.089Z,6.27
2019-03-08T16:28:01.454Z,6.27
2019-03-08T16:31:10.176Z,5.30
2019-03-08T16:34:15.399Z,5.20
2019-03-08T16:37:20.610Z,4.50
2019-03-08T16:40:25.789Z,4.43
2019-03-08T16:43:47.368Z,4.10
2019-03-08T16:46:52.604Z,5.40
2019-03-08T16:50:06.695Z,3.83
2019-03-08T16:53:15.012Z,5.03
2019-03-08T16:56:36.645Z,5.93
2019-03-08T16:59:47.867Z,6.87
2019-03-08T17:02:58.994Z,7.20
2019-03-08T17:06:07.190Z,7.37
2019-03-08T17:09:15.660Z,7.40
2019-03-08T17:12:27.275Z,7.73
2019-03-08T17:15:49.219Z,7.50
2019-03-08T17:18:54.614Z,7.37
2019-03-08T17:22:00.039Z,8.50
2019-03-08T17:25:14.740Z,8.13
2019-03-08T17:28:38.305Z,8.20
2019-03-08T17:31:43.746Z,7.47
2019-03-08T17:35:04.355Z,8.50
2019-03-08T17:38:10.535Z,8.37
2019-03-08T17:41:22.708Z,9.43
2019-03-08T17:44:31.335Z,7.67
2019-03-08T17:47:45.833Z,8.73
2019-03-08T17:51:00.478Z,8.57
2019-03-08T17:54:18.397Z,8.50
2019-03-08T17:57:24.053Z,9.90
2019-03-08T18:00:32.519Z,9.87
2019-03-08T18:03:47.224Z,10.03
2019-03-08T18:06:52.634Z,11.90
2019-03-08T18:10:10.016Z,11.73
2019-03-08T18:13:15.460Z,12.63
2019-03-08T18:16:32.900Z,11.73
2019-03-08T18:19:41.036Z,11.00
2019-03-08T18:22:55.484Z,17.03
2019-03-08T18:26:00.924Z,14.57
2019-03-08T18:29:06.403Z,10.27
2019-03-08T18:32:28.054Z,11.37
2019-03-08T18:35:42.293Z,18.97
2019-03-08T18:38:50.378Z,16.70
2019-03-08T18:41:55.774Z,14.70
2019-03-08T18:45:10.675Z,14.63
2019-03-08T18:48:18.838Z,18.67
2019-03-08T18:51:36.115Z,22.43
2019-03-08T18:54:50.654Z,16.10
2019-03-08T18:57:58.904Z,15.67
2019-03-08T19:01:13.430Z,15.77
2019-03-08T19:04:35.525Z,15.50
2019-03-08T19:07:43.746Z,14.10
2019-03-08T19:11:05.517Z,14.40
2019-03-08T19:14:13.935Z,14.73
2019-03-08T19:17:36.034Z,14.47
2019-03-08T19:20:44.522Z,14.00
2019-03-08T19:23:55.694Z,14.53
2019-03-08T19:27:01.140Z,13.63
2019-03-08T19:30:18.317Z,16.50
2019-03-08T19:33:32.673Z,17.30
2019-03-08T19:36:50.415Z,14.53
2019-03-08T19:40:12.263Z,14.33
2019-03-08T19:43:32.703Z,9.87
2019-03-08T19:46:53.337Z,9.80
2019-03-08T19:50:15.083Z,9.17
2019-03-08T19:53:37.044Z,8.37
2019-03-08T19:56:42.575Z,8.57
2019-03-08T20:00:00.353Z,7.47
2019-03-08T20:03:05.964Z,8.07
2019-03-08T20:06:27.963Z,6.80
2019-03-08T20:09:45.435Z,6.30
2019-03-08T20:13:02.743Z,7.00
2019-03-08T20:16:24.582Z,7.63
2019-03-08T20:19:32.821Z,7.93
2019-03-08T20:22:54.264Z,7.93
2019-03-08T20:26:15.845Z,7.07
2019-03-08T20:29:39.238Z,6.97
2019-03-08T20:32:50.794Z,6.63
2019-03-08T20:36:08.984Z,7.30
2019-03-08T20:39:23.708Z,7.57
2019-03-08T20:42:29.133Z,6.80
2019-03-08T20:45:34.613Z,6.27
2019-03-08T20:48:38.412Z,6.00
2019-03-08T20:51:42.418Z,6.80
2019-03-08T20:54:46.241Z,6.50
2019-03-08T20:57:50.137Z,7.17
2019-03-08T21:00:53.973Z,7.20
2019-03-08T21:03:58.515Z,6.13
2019-03-08T21:07:02.366Z,6.43
2019-03-08T21:10:09.517Z,5.73
2019-03-08T21:13:13.424Z,6.10
2019-03-08T21:16:17.272Z,6.70
2019-03-08T21:19:21.149Z,6.63
2019-03-08T21:22:25.350Z,7.00
2019-03-08T21:25:29.178Z,6.50
2019-03-08T21:28:33.027Z,6.17
2019-03-08T21:31:36.912Z,6.30
2019-03-08T21:34:40.752Z,6.20
2019-03-08T21:37:44.601Z,7.40
2019-03-08T21:40:48.417Z,10.50
2019-03-08T21:43:52.292Z,8.40
2019-03-08T21:46:56.152Z,6.87
2019-03-08T21:49:59.993Z,7.73
2019-03-08T21:53:04.257Z,7.30
2019-03-08T21:56:08.120Z,7.67
2019-03-08T21:59:12.008Z,8.50
2019-03-08T22:02:15.855Z,8.23
2019-03-08T22:05:21.270Z,9.83
2019-03-08T22:08:25.115Z,8.97
2019-03-08T22:11:30.515Z,9.93
2019-03-08T22:14:34.363Z,10.87
2019-03-08T22:17:38.196Z,12.57
2019-03-08T22:20:42.263Z,10.85
2019-03-08T22:23:46.113Z,11.57
2019-03-08T22:26:49.994Z,11.80
2019-03-08T22:29:53.863Z,9.83
2019-03-08T22:32:57.683Z,10.93
2019-03-08T22:36:01.553Z,9.53
2019-03-08T22:39:06.933Z,9.37
2019-03-08T22:42:10.748Z,9.67
2019-03-08T22:45:15.514Z,8.87
2019-03-08T22:48:19.337Z,9.43
2019-03-08T22:51:23.183Z,9.60
2019-03-08T22:54:27.043Z,8.27
2019-03-08T22:57:30.898Z,9.47
2019-03-08T23:00:59.938Z,9.50
2019-03-08T23:04:04.276Z,10.03
2019-03-08T23:07:08.152Z,10.90
2019-03-08T23:10:12.712Z,11.03
2019-03-08T23:13:16.578Z,11.27
2019-03-08T23:16:20.453Z,12.33
2019-03-08T23:19:24.285Z,11.97
2019-03-08T23:22:28.133Z,11.50
2019-03-08T23:25:31.972Z,12.43
2019-03-08T23:28:37.440Z,13.00
2019-03-08T23:31:45.818Z,12.87
2019-03-08T23:34:49.671Z,13.00
2019-03-08T23:37:53.525Z,12.90
2019-03-08T23:40:57.335Z,12.00
2019-03-08T23:44:01.193Z,11.10
2019-03-08T23:47:05.072Z,12.10
2019-03-08T23:50:09.995Z,12.70
2019-03-08T23:53:14.116Z,12.10
2019-03-08T23:56:17.977Z,11.93
2019-03-08T23:59:21.808Z,12.33
